createdAt,value
2023-10-31T00:01:34.611Z,12.80
2023-10-31T00:04:02.891Z,12.80
2023-10-31T00:06:31.155Z,12.80
2023-10-31T00:08:59.340Z,12.80
2023-10-31T00:11:27.438Z,12.90
2023-10-31T00:13:55.694Z,12.80
2023-10-31T00:16:25.234Z,12.80
2023-10-31T00:18:54.820Z,12.80
2023-10-31T00:21:23.049Z,12.80
2023-10-31T00:23:51.671Z,12.80
2023-10-31T00:26:19.929Z,12.80
2023-10-31T00:28:48.118Z,12.80
2023-10-31T00:31:16.370Z,12.80
2023-10-31T00:33:44.595Z,12.90
2023-10-31T00:36:14.294Z,12.90
2023-10-31T00:38:42.469Z,12.90
2023-10-31T00:41:10.673Z,13.00
2023-10-31T00:43:38.860Z,13.00
2023-10-31T00:46:07.068Z,13.00
2023-10-31T00:48:37.656Z,12.90
2023-10-31T00:51:06.407Z,12.90
2023-10-31T00:53:36.063Z,12.90
2023-10-31T00:56:05.623Z,12.90
2023-10-31T00:58:33.901Z,12.90
2023-10-31T01:01:02.127Z,12.90
2023-10-31T01:03:31.533Z,12.90
2023-10-31T01:05:59.919Z,12.90
2023-10-31T01:08:28.199Z,12.90
2023-10-31T01:10:57.720Z,12.80
2023-10-31T01:13:25.908Z,12.80
2023-10-31T01:15:54.167Z,12.80
2023-10-31T01:18:22.447Z,12.70
2023-10-31T01:20:50.603Z,12.80
2023-10-31T01:23:18.764Z,12.70
2023-10-31T01:25:46.863Z,12.70
2023-10-31T01:28:16.377Z,12.70
2023-10-31T01:30:44.413Z,12.70
2023-10-31T01:33:12.604Z,12.60
2023-10-31T01:35:41.079Z,12.60
2023-10-31T01:38:09.281Z,12.60
2023-10-31T01:40:37.472Z,12.50
2023-10-31T01:43:05.706Z,12.60
2023-10-31T01:45:35.282Z,12.60
2023-10-31T01:48:03.978Z,12.60
2023-10-31T01:50:32.390Z,12.50
2023-10-31T01:53:00.615Z,12.50
2023-10-31T01:55:30.568Z,12.50
2023-10-31T01:57:58.840Z,12.50
2023-10-31T02:00:27.670Z,12.50
2023-10-31T02:02:58.090Z,12.50
2023-10-31T02:05:28.607Z,12.50
2023-10-31T02:07:56.877Z,12.50
2023-10-31T02:10:25.054Z,12.50
2023-10-31T02:12:53.157Z,12.50
2023-10-31T02:15:21.336Z,12.50
2023-10-31T02:17:49.488Z,12.40
2023-10-31T02:20:19.096Z,12.40
2023-10-31T02:22:49.238Z,12.40
2023-10-31T02:25:20.661Z,12.50
2023-10-31T02:27:49.092Z,12.50
2023-10-31T02:30:17.415Z,12.40
2023-10-31T02:32:45.776Z,12.40
2023-10-31T02:35:15.146Z,12.50
2023-10-31T02:37:43.407Z,12.50
2023-10-31T02:40:14.187Z,12.50
2023-10-31T02:42:42.347Z,12.40
2023-10-31T02:45:11.208Z,12.40
2023-10-31T02:47:39.385Z,12.40
2023-10-31T02:50:08.764Z,12.30
2023-10-31T02:52:38.247Z,12.30
2023-10-31T02:55:06.970Z,12.30
2023-10-31T02:57:36.491Z,12.20
2023-10-31T03:00:05.578Z,12.30
2023-10-31T03:02:33.942Z,12.40
2023-10-31T03:05:02.102Z,12.30
2023-10-31T03:07:30.265Z,12.30
2023-10-31T03:09:58.389Z,12.30
2023-10-31T03:12:26.521Z,12.30
2023-10-31T03:14:56.072Z,12.30
2023-10-31T03:17:26.805Z,12.10
2023-10-31T03:19:55.082Z,12.20
2023-10-31T03:22:23.494Z,12.10
2023-10-31T03:24:51.675Z,12.10
2023-10-31T03:27:19.931Z,12.10
2023-10-31T03:29:48.202Z,12.00
2023-10-31T03:32:17.919Z,12.00
2023-10-31T03:34:46.302Z,12.00
2023-10-31T03:37:14.496Z,11.90
2023-10-31T03:39:42.680Z,12.00
2023-10-31T03:42:10.977Z,12.00
2023-10-31T03:44:39.176Z,12.00
2023-10-31T03:47:07.605Z,11.90
2023-10-31T03:49:40.266Z,12.00
2023-10-31T03:52:08.839Z,12.00
2023-10-31T03:54:37.053Z,11.90
2023-10-31T03:57:05.531Z,11.90
2023-10-31T03:59:33.788Z,11.90
2023-10-31T04:02:02.140Z,11.90
2023-10-31T04:04:30.346Z,11.90
2023-10-31T04:07:00.031Z,11.90
2023-10-31T04:09:28.243Z,11.90
2023-10-31T04:11:56.434Z,11.90
2023-10-31T04:14:24.909Z,11.90
2023-10-31T04:16:53.156Z,11.90
2023-10-31T04:19:21.337Z,11.90
2023-10-31T04:21:49.526Z,11.90
2023-10-31T04:24:19.031Z,12.00
2023-10-31T04:26:47.235Z,12.00
2023-10-31T04:29:15.698Z,11.90
2023-10-31T04:31:44.599Z,11.90
2023-10-31T04:34:14.195Z,11.90
2023-10-31T04:36:42.499Z,11.90
2023-10-31T04:39:10.666Z,11.90
2023-10-31T04:41:40.199Z,11.80
2023-10-31T04:44:08.485Z,11.70
2023-10-31T04:46:36.795Z,11.70
2023-10-31T04:49:05.077Z,11.80
2023-10-31T04:51:35.956Z,11.80
2023-10-31T04:54:04.252Z,11.70
2023-10-31T04:56:32.660Z,11.70
2023-10-31T04:59:02.576Z,11.60
2023-10-31T05:01:30.802Z,11.70
2023-10-31T05:04:07.045Z,11.70
2023-10-31T05:06:40.811Z,11.70
2023-10-31T05:09:08.971Z,11.70
2023-10-31T05:11:37.968Z,11.60
2023-10-31T05:14:09.455Z,11.70
2023-10-31T05:16:42.464Z,11.70
2023-10-31T05:19:10.925Z,11.70
2023-10-31T05:21:39.051Z,11.70
2023-10-31T05:24:08.413Z,11.70
2023-10-31T05:26:36.569Z,11.60
2023-10-31T05:29:04.830Z,11.60
2023-10-31T05:31:34.524Z,11.60
2023-10-31T05:34:02.707Z,11.50
2023-10-31T05:36:30.854Z,11.50
2023-10-31T05:38:59.620Z,11.50
2023-10-31T05:41:27.972Z,11.50
2023-10-31T05:43:56.119Z,11.50
2023-10-31T05:46:24.363Z,11.50
2023-10-31T05:48:53.926Z,11.50
2023-10-31T05:51:22.403Z,11.50
2023-10-31T05:53:51.212Z,11.50
2023-10-31T05:56:19.393Z,11.40
2023-10-31T05:58:47.770Z,11.30
2023-10-31T06:01:16.256Z,11.20
2023-10-31T06:03:45.640Z,11.20
2023-10-31T06:06:15.321Z,11.20
2023-10-31T06:08:44.202Z,11.20
2023-10-31T06:11:14.266Z,11.20
2023-10-31T06:13:42.637Z,11.30
2023-10-31T06:16:10.903Z,11.40
2023-10-31T06:18:41.699Z,11.40
2023-10-31T06:21:11.200Z,11.40
2023-10-31T06:23:40.974Z,11.30
2023-10-31T06:26:09.643Z,11.30
2023-10-31T06:28:41.585Z,11.30
2023-10-31T06:31:14.228Z,11.30
2023-10-31T06:33:42.657Z,11.30
2023-10-31T06:36:11.292Z,11.20
2023-10-31T06:38:41.217Z,11.20
2023-10-31T06:41:10.061Z,11.20
2023-10-31T06:43:38.641Z,11.00
2023-10-31T06:46:08.287Z,11.10
2023-10-31T06:48:36.819Z,11.20
2023-10-31T06:51:05.977Z,11.20
2023-10-31T06:53:34.213Z,11.20
2023-10-31T06:56:03.897Z,11.20
2023-10-31T06:58:32.118Z,11.30
2023-10-31T07:01:00.915Z,11.30
2023-10-31T07:03:29.249Z,11.30
2023-10-31T07:05:58.170Z,11.30
2023-10-31T07:08:26.346Z,11.30
2023-10-31T07:10:54.521Z,11.40
2023-10-31T07:13:24.129Z,11.30
2023-10-31T07:15:52.246Z,11.30
2023-10-31T07:18:20.516Z,11.30
2023-10-31T07:20:48.728Z,11.30
2023-10-31T07:23:17.145Z,11.40
2023-10-31T07:25:46.464Z,11.40
2023-10-31T07:28:14.698Z,11.40
2023-10-31T07:30:44.367Z,11.40
2023-10-31T07:33:12.828Z,11.40
2023-10-31T07:35:41.048Z,11.50
2023-10-31T07:38:09.236Z,11.50
2023-10-31T07:40:37.425Z,11.50
2023-10-31T07:43:05.685Z,11.40
2023-10-31T07:45:33.926Z,11.50
2023-10-31T07:48:03.960Z,11.50
2023-10-31T07:50:32.207Z,11.50
2023-10-31T07:53:00.817Z,11.60
2023-10-31T07:55:29.113Z,11.70
2023-10-31T07:57:57.388Z,11.70
2023-10-31T08:00:25.818Z,11.50
2023-10-31T08:02:55.756Z,11.60
2023-10-31T08:05:26.759Z,11.60
2023-10-31T08:07:55.028Z,11.70
2023-10-31T08:10:23.287Z,11.70
2023-10-31T08:12:52.555Z,11.80
2023-10-31T08:15:20.756Z,11.80
2023-10-31T08:17:48.917Z,11.80
2023-10-31T08:20:17.306Z,11.80
2023-10-31T08:22:47.966Z,11.90
2023-10-31T08:25:16.478Z,12.00
2023-10-31T08:27:44.807Z,12.00
2023-10-31T08:30:14.130Z,12.10
2023-10-31T08:32:42.815Z,12.20
2023-10-31T08:35:11.220Z,12.30
2023-10-31T08:37:39.759Z,12.20
2023-10-31T08:40:11.133Z,12.30
2023-10-31T08:42:39.530Z,12.40
2023-10-31T08:45:09.609Z,12.40
2023-10-31T08:47:38.350Z,12.40
2023-10-31T08:50:09.576Z,12.50
2023-10-31T08:52:37.810Z,12.50
2023-10-31T08:55:06.884Z,12.50
2023-10-31T08:57:36.714Z,12.30
2023-10-31T09:00:06.329Z,12.40
2023-10-31T09:02:34.929Z,12.50
2023-10-31T09:05:03.287Z,12.50
2023-10-31T09:07:31.680Z,12.80
2023-10-31T09:10:00.135Z,13.00
2023-10-31T09:12:30.343Z,13.30
2023-10-31T09:15:01.132Z,13.30
2023-10-31T09:17:29.496Z,13.50
2023-10-31T09:19:57.978Z,13.50
2023-10-31T09:22:28.669Z,13.40
2023-10-31T09:24:56.900Z,13.40
2023-10-31T09:27:25.237Z,13.40
2023-10-31T09:29:53.780Z,13.60
2023-10-31T09:32:23.738Z,13.60
2023-10-31T09:34:52.062Z,13.50
2023-10-31T09:37:20.528Z,13.50
2023-10-31T09:39:48.850Z,13.40
2023-10-31T09:42:17.491Z,13.40
2023-10-31T09:44:46.005Z,13.30
2023-10-31T09:47:15.019Z,13.20
2023-10-31T09:49:46.920Z,13.10
2023-10-31T09:52:17.661Z,13.00
2023-10-31T09:54:47.775Z,13.00
2023-10-31T09:57:18.313Z,12.90
2023-10-31T09:59:46.616Z,12.70
2023-10-31T10:02:15.066Z,12.80
2023-10-31T10:04:44.956Z,12.80
2023-10-31T10:07:17.587Z,12.90
2023-10-31T10:09:47.413Z,12.90
2023-10-31T10:12:16.258Z,12.90
2023-10-31T10:14:46.538Z,13.00
2023-10-31T10:17:18.908Z,13.00
2023-10-31T10:19:48.669Z,13.10
2023-10-31T10:22:17.475Z,13.10
2023-10-31T10:24:46.747Z,13.10
2023-10-31T10:27:14.979Z,13.00
2023-10-31T10:29:43.539Z,13.00
2023-10-31T10:32:11.695Z,12.90
2023-10-31T10:34:40.125Z,12.90
2023-10-31T10:37:10.360Z,12.90
2023-10-31T10:39:42.021Z,12.80
2023-10-31T10:42:13.219Z,12.90
2023-10-31T10:44:50.306Z,13.10
2023-10-31T10:47:20.887Z,13.40
2023-10-31T10:49:53.456Z,13.70
2023-10-31T10:52:29.210Z,13.90
2023-10-31T10:55:08.495Z,13.90
2023-10-31T10:57:41.598Z,13.80
2023-10-31T11:00:13.990Z,13.80
2023-10-31T11:02:44.104Z,13.80
2023-10-31T11:05:12.902Z,13.70
2023-10-31T11:07:43.207Z,13.60
2023-10-31T11:10:12.265Z,13.60
2023-10-31T11:12:41.038Z,13.60
2023-10-31T11:15:12.181Z,13.60
2023-10-31T11:17:43.329Z,13.70
2023-10-31T11:20:15.598Z,13.70
2023-10-31T11:22:46.892Z,13.70
2023-10-31T11:25:29.366Z,13.70
2023-10-31T11:28:13.928Z,13.70
2023-10-31T11:30:43.255Z,13.60
2023-10-31T11:33:15.608Z,13.60
2023-10-31T11:35:46.324Z,13.60
2023-10-31T11:38:16.407Z,13.50
2023-10-31T11:41:03.156Z,13.60
2023-10-31T11:43:54.666Z,13.60
2023-10-31T11:46:26.428Z,13.60
2023-10-31T11:48:57.551Z,13.60
2023-10-31T11:51:26.409Z,13.50
2023-10-31T11:53:56.344Z,13.50
2023-10-31T11:56:25.278Z,13.50
2023-10-31T11:59:01.137Z,13.50
2023-10-31T12:01:29.967Z,13.50
2023-10-31T12:03:59.080Z,13.40
2023-10-31T12:06:28.207Z,13.40
2023-10-31T12:09:03.694Z,13.40
2023-10-31T12:11:32.595Z,13.40
2023-10-31T12:14:03.121Z,13.50
2023-10-31T12:16:33.294Z,13.50
2023-10-31T12:19:03.949Z,13.60
2023-10-31T12:21:39.742Z,13.60
2023-10-31T12:24:11.693Z,13.60
2023-10-31T12:26:41.029Z,13.60
2023-10-31T12:29:11.227Z,13.60
2023-10-31T12:31:44.485Z,13.60
2023-10-31T12:34:13.346Z,13.60
2023-10-31T12:36:43.076Z,13.70
2023-10-31T12:39:14.281Z,13.70
2023-10-31T12:41:43.933Z,13.70
2023-10-31T12:44:14.319Z,13.70
2023-10-31T12:46:43.799Z,13.60
2023-10-31T12:49:19.308Z,13.50
2023-10-31T12:52:01.786Z,13.50
2023-10-31T12:54:32.737Z,13.50
2023-10-31T12:57:02.867Z,13.60
2023-10-31T12:59:31.556Z,13.60
2023-10-31T13:02:01.105Z,13.60
2023-10-31T13:04:31.272Z,13.60
2023-10-31T13:07:01.491Z,13.70
2023-10-31T13:09:36.708Z,13.60
2023-10-31T13:12:09.344Z,13.70
2023-10-31T13:14:39.316Z,13.70
2023-10-31T13:17:08.603Z,13.70
2023-10-31T13:19:38.098Z,13.70
2023-10-31T13:22:07.664Z,13.80
2023-10-31T13:24:40.525Z,13.70
2023-10-31T13:27:09.734Z,13.70
2023-10-31T13:29:38.353Z,13.70
2023-10-31T13:32:07.048Z,13.80
2023-10-31T13:34:35.857Z,13.80
2023-10-31T13:37:04.955Z,13.80
2023-10-31T13:39:33.238Z,13.80
2023-10-31T13:42:03.042Z,13.90
2023-10-31T13:44:31.716Z,13.90
2023-10-31T13:47:00.191Z,14.00
2023-10-31T13:49:28.397Z,14.10
2023-10-31T13:51:57.250Z,14.10
2023-10-31T13:54:25.848Z,14.00
2023-10-31T13:56:54.549Z,14.10
2023-10-31T13:59:24.889Z,14.00
2023-10-31T14:01:54.091Z,14.10
2023-10-31T14:04:23.288Z,14.10
2023-10-31T14:06:52.776Z,14.10
2023-10-31T14:09:22.276Z,14.00
2023-10-31T14:11:51.130Z,14.00
2023-10-31T14:14:20.594Z,14.00
2023-10-31T14:16:50.404Z,14.00
2023-10-31T14:19:19.126Z,14.00
2023-10-31T14:21:47.795Z,13.90
2023-10-31T14:24:16.295Z,13.90
2023-10-31T14:26:45.283Z,13.90
2023-10-31T14:29:13.946Z,13.90
2023-10-31T14:31:43.848Z,13.90
2023-10-31T14:34:13.945Z,13.80
2023-10-31T14:36:42.893Z,13.80
2023-10-31T14:39:12.939Z,13.80
2023-10-31T14:41:41.701Z,13.90
2023-10-31T14:44:10.864Z,13.80
2023-10-31T14:46:41.048Z,13.80
2023-10-31T14:49:09.641Z,13.90
2023-10-31T14:51:41.929Z,13.90
2023-10-31T14:54:10.526Z,13.90
2023-10-31T14:56:39.159Z,13.90
2023-10-31T14:59:07.666Z,13.90
2023-10-31T15:01:36.318Z,13.90
2023-10-31T15:04:06.520Z,13.90
2023-10-31T15:06:35.052Z,13.90
2023-10-31T15:09:05.463Z,13.90
2023-10-31T15:11:33.964Z,13.90
2023-10-31T15:14:03.487Z,13.80
2023-10-31T15:16:31.896Z,13.80
2023-10-31T15:19:00.992Z,13.70
2023-10-31T15:21:29.332Z,13.60
2023-10-31T15:23:58.841Z,13.60
2023-10-31T15:26:30.067Z,13.50
2023-10-31T15:28:58.778Z,13.50
2023-10-31T15:31:27.112Z,13.50
2023-10-31T15:33:55.368Z,13.50
2023-10-31T15:36:23.644Z,13.40
2023-10-31T15:38:52.020Z,13.40
2023-10-31T15:41:22.855Z,13.40
2023-10-31T15:43:54.256Z,13.40
2023-10-31T15:46:22.522Z,13.40
2023-10-31T15:48:50.804Z,13.20
2023-10-31T15:51:19.587Z,13.30
2023-10-31T15:53:48.589Z,13.30
2023-10-31T15:56:16.877Z,13.30
2023-10-31T15:58:45.078Z,13.20
2023-10-31T16:01:15.671Z,13.20
2023-10-31T16:03:43.966Z,13.20
2023-10-31T16:06:12.280Z,13.20
2023-10-31T16:08:41.443Z,13.10
2023-10-31T16:11:09.933Z,13.00
2023-10-31T16:13:38.666Z,13.00
2023-10-31T16:16:08.193Z,13.00
2023-10-31T16:18:38.776Z,12.90
2023-10-31T16:21:08.883Z,12.80
2023-10-31T16:23:37.118Z,12.90
2023-10-31T16:26:06.044Z,12.90
2023-10-31T16:28:34.540Z,12.80
2023-10-31T16:31:02.907Z,12.70
2023-10-31T16:33:31.247Z,12.70
2023-10-31T16:36:01.114Z,12.80
2023-10-31T16:38:29.969Z,12.80
2023-10-31T16:41:01.309Z,12.80
2023-10-31T16:43:30.704Z,12.80
2023-10-31T16:45:59.908Z,12.70
2023-10-31T16:48:28.208Z,12.60
2023-10-31T16:50:56.619Z,12.60
2023-10-31T16:53:26.502Z,12.50
2023-10-31T16:55:55.491Z,12.60
2023-10-31T16:58:24.133Z,12.50
2023-10-31T17:00:52.932Z,12.50
2023-10-31T17:03:21.800Z,12.60
2023-10-31T17:05:50.482Z,12.60
2023-10-31T17:08:18.923Z,12.60
2023-10-31T17:10:49.531Z,12.60
2023-10-31T17:13:18.286Z,12.40
2023-10-31T17:15:47.058Z,12.40
2023-10-31T17:18:19.607Z,12.40
2023-10-31T17:20:49.249Z,12.50
2023-10-31T17:23:17.651Z,12.40
2023-10-31T17:25:49.172Z,12.40
2023-10-31T17:28:19.305Z,12.50
2023-10-31T17:30:48.108Z,12.50
2023-10-31T17:33:17.212Z,12.50
2023-10-31T17:35:45.679Z,12.50
2023-10-31T17:38:14.106Z,12.40
2023-10-31T17:40:42.432Z,12.40
2023-10-31T17:43:10.620Z,12.30
2023-10-31T17:45:41.124Z,12.30
2023-10-31T17:48:10.188Z,12.30
2023-10-31T17:50:39.381Z,12.30
2023-10-31T17:53:08.433Z,12.30
2023-10-31T17:55:37.393Z,12.30
2023-10-31T17:58:06.374Z,12.20
2023-10-31T18:00:34.759Z,12.10
2023-10-31T18:03:04.857Z,12.20
2023-10-31T18:05:33.654Z,12.20
2023-10-31T18:08:02.226Z,12.20
2023-10-31T18:10:30.602Z,12.00
2023-10-31T18:13:01.111Z,12.10
2023-10-31T18:15:31.186Z,12.10
2023-10-31T18:17:59.706Z,12.20
2023-10-31T18:20:29.459Z,12.30
2023-10-31T18:22:57.942Z,12.30
2023-10-31T18:25:26.441Z,12.30
2023-10-31T18:27:54.764Z,12.20
2023-10-31T18:30:23.395Z,12.20
2023-10-31T18:32:52.469Z,12.20
2023-10-31T18:35:21.092Z,12.10
2023-10-31T18:37:53.644Z,12.10
2023-10-31T18:40:21.884Z,12.10
2023-10-31T18:42:50.212Z,12.10
2023-10-31T18:45:18.640Z,12.10
2023-10-31T18:47:47.343Z,12.10
2023-10-31T18:50:15.865Z,12.20
2023-10-31T18:52:44.209Z,12.10
2023-10-31T18:55:14.044Z,12.10
2023-10-31T18:57:42.457Z,12.20
2023-10-31T19:00:12.241Z,12.20
2023-10-31T19:02:41.018Z,12.20
2023-10-31T19:05:10.297Z,12.30
2023-10-31T19:07:40.493Z,12.30
2023-10-31T19:10:11.116Z,12.30
2023-10-31T19:12:41.108Z,12.20
2023-10-31T19:15:10.498Z,12.30
2023-10-31T19:17:39.252Z,12.20
2023-10-31T19:20:08.800Z,12.30
2023-10-31T19:22:37.814Z,12.30
2023-10-31T19:25:07.155Z,12.30
2023-10-31T19:27:35.633Z,12.20
2023-10-31T19:30:06.458Z,12.20
2023-10-31T19:32:34.885Z,12.20
2023-10-31T19:35:04.219Z,12.20
2023-10-31T19:37:32.645Z,12.20
2023-10-31T19:40:01.541Z,12.30
2023-10-31T19:42:30.021Z,12.20
2023-10-31T19:44:58.773Z,12.30
2023-10-31T19:47:29.138Z,12.20
2023-10-31T19:49:57.968Z,12.20
2023-10-31T19:52:27.260Z,12.20
2023-10-31T19:54:55.718Z,12.20
2023-10-31T19:57:24.049Z,12.20
2023-10-31T19:59:52.933Z,12.30
2023-10-31T20:02:21.558Z,12.30
2023-10-31T20:04:51.490Z,12.20
2023-10-31T20:07:22.602Z,12.20
2023-10-31T20:09:51.125Z,12.20
2023-10-31T20:12:19.631Z,12.20
2023-10-31T20:14:59.932Z,12.10
2023-10-31T20:17:33.246Z,12.00
2023-10-31T20:20:04.224Z,11.90
2023-10-31T20:22:32.557Z,11.90
2023-10-31T20:25:01.049Z,12.00
2023-10-31T20:27:29.822Z,12.00
2023-10-31T20:29:58.344Z,12.00
2023-10-31T20:32:27.709Z,11.90
2023-10-31T20:34:57.015Z,11.80
2023-10-31T20:37:27.227Z,11.80
2023-10-31T20:39:55.944Z,11.90
2023-10-31T20:42:24.432Z,12.00
2023-10-31T20:44:52.593Z,12.00
2023-10-31T20:47:21.340Z,11.80
2023-10-31T20:49:49.932Z,11.80
2023-10-31T20:52:18.327Z,11.90
2023-10-31T20:54:48.116Z,11.80
2023-10-31T20:57:16.633Z,11.70
2023-10-31T20:59:49.113Z,11.70
2023-10-31T21:02:17.800Z,11.70
2023-10-31T21:04:47.471Z,11.70
2023-10-31T21:07:18.945Z,11.70
2023-10-31T21:09:49.678Z,11.70
2023-10-31T21:12:18.235Z,11.70
2023-10-31T21:14:47.846Z,11.70
2023-10-31T21:17:16.912Z,11.70
2023-10-31T21:19:45.532Z,11.60
2023-10-31T21:22:14.754Z,11.70
2023-10-31T21:24:43.728Z,11.70
2023-10-31T21:27:13.810Z,11.70
2023-10-31T21:29:42.635Z,11.70
2023-10-31T21:32:11.149Z,11.70
2023-10-31T21:34:40.002Z,11.70
2023-10-31T21:37:08.913Z,11.50
2023-10-31T21:39:37.601Z,11.60
2023-10-31T21:42:07.091Z,11.50
2023-10-31T21:44:37.376Z,11.60
2023-10-31T21:47:06.544Z,11.60
2023-10-31T21:49:35.352Z,11.60
2023-10-31T21:52:04.133Z,11.60
2023-10-31T21:54:34.132Z,11.50
2023-10-31T21:57:04.246Z,11.50
2023-10-31T21:59:33.222Z,11.50
2023-10-31T22:02:04.081Z,11.50
2023-10-31T22:04:33.390Z,11.50
2023-10-31T22:07:04.430Z,11.40
2023-10-31T22:09:33.171Z,11.40
2023-10-31T22:12:02.352Z,11.40
2023-10-31T22:14:31.361Z,11.50
2023-10-31T22:17:00.150Z,11.40
2023-10-31T22:19:30.614Z,11.40
2023-10-31T22:21:59.379Z,11.40
2023-10-31T22:24:28.110Z,11.30
2023-10-31T22:26:56.885Z,11.40
2023-10-31T22:29:25.619Z,11.30
2023-10-31T22:31:54.459Z,11.30
2023-10-31T22:34:23.184Z,11.40
2023-10-31T22:36:55.505Z,11.40
2023-10-31T22:39:24.498Z,11.40
2023-10-31T22:41:53.628Z,11.40
2023-10-31T22:44:22.427Z,11.30
2023-10-31T22:46:51.358Z,11.30
2023-10-31T22:49:20.439Z,11.30
2023-10-31T22:51:49.228Z,11.30
2023-10-31T22:54:19.476Z,11.40
2023-10-31T22:56:50.092Z,11.40
2023-10-31T22:59:18.980Z,11.40
2023-10-31T23:01:47.432Z,11.50
2023-10-31T23:04:16.057Z,11.50
2023-10-31T23:06:44.702Z,11.50
2023-10-31T23:09:16.808Z,11.40
2023-10-31T23:11:47.304Z,11.50
2023-10-31T23:14:16.174Z,11.40
2023-10-31T23:16:44.456Z,11.40
2023-10-31T23:19:12.868Z,11.50
2023-10-31T23:21:41.520Z,11.50
2023-10-31T23:24:11.158Z,11.50
2023-10-31T23:26:39.657Z,11.60
2023-10-31T23:29:11.982Z,11.60
2023-10-31T23:31:40.435Z,11.60
2023-10-31T23:34:08.860Z,11.60
2023-10-31T23:36:37.263Z,11.50
2023-10-31T23:39:05.522Z,11.40
2023-10-31T23:41:34.169Z,11.40
2023-10-31T23:44:02.432Z,11.30
2023-10-31T23:46:32.276Z,11.30
2023-10-31T23:49:00.597Z,11.40
2023-10-31T23:51:30.422Z,11.40
2023-10-31T23:53:58.802Z,11.40
2023-10-31T23:56:27.219Z,11.40
2023-10-31T23:58:55.490Z,11.40
